sensor_id;sensor_type;location;lat;lon;timestamp;pressure;altitude;pressure_sealevel;temperature;humidity
55470;BME280;41334;47.872;16.384;2023-08-07T00:00:04;98219.13;;;13.33;55.68
55470;BME280;41334;47.872;16.384;2023-08-07T00:05:06;98208.91;;;13.37;55.13
55470;BME280;41334;47.872;16.384;2023-08-07T00:10:08;98212.09;;;13.39;55.22
55470;BME280;41334;47.872;16.384;2023-08-07T00:15:10;98220.66;;;13.46;55.41
55470;BME280;41334;47.872;16.384;2023-08-07T00:20:13;98223.69;;;13.57;55.18
55470;BME280;41334;47.872;16.384;2023-08-07T00:25:14;98217.59;;;13.51;55.11
55470;BME280;41334;47.872;16.384;2023-08-07T00:30:16;98231.66;;;13.58;54.59
55470;BME280;41334;47.872;16.384;2023-08-07T00:35:18;98223.88;;;13.64;54.40
55470;BME280;41334;47.872;16.384;2023-08-07T00:40:20;98225.94;;;13.67;54.45
55470;BME280;41334;47.872;16.384;2023-08-07T00:45:22;98231.13;;;13.68;54.41
55470;BME280;41334;47.872;16.384;2023-08-07T00:50:27;98232.38;;;13.71;54.82
55470;BME280;41334;47.872;16.384;2023-08-07T00:55:47;98224.84;;;13.71;54.43
55470;BME280;41334;47.872;16.384;2023-08-07T01:00:50;98227.25;;;13.73;54.40
55470;BME280;41334;47.872;16.384;2023-08-07T01:05:52;98230.75;;;13.70;55.03
55470;BME280;41334;47.872;16.384;2023-08-07T01:16:14;98235.16;;;13.71;54.92
55470;BME280;41334;47.872;16.384;2023-08-07T01:21:20;98235.09;;;13.67;55.09
55470;BME280;41334;47.872;16.384;2023-08-07T01:26:22;98236.25;;;13.66;54.91
55470;BME280;41334;47.872;16.384;2023-08-07T01:31:25;98236.97;;;13.63;55.35
55470;BME280;41334;47.872;16.384;2023-08-07T01:36:29;98248.34;;;13.58;55.29
55470;BME280;41334;47.872;16.384;2023-08-07T01:41:32;98247.13;;;13.56;55.42
55470;BME280;41334;47.872;16.384;2023-08-07T01:46:34;98253.50;;;13.56;55.16
55470;BME280;41334;47.872;16.384;2023-08-07T01:51:36;98253.78;;;13.51;54.93
55470;BME280;41334;47.872;16.384;2023-08-07T01:56:38;98259.25;;;13.48;54.85
55470;BME280;41334;47.872;16.384;2023-08-07T02:01:39;98241.91;;;13.38;55.29
55470;BME280;41334;47.872;16.384;2023-08-07T02:06:42;98244.97;;;13.33;56.52
55470;BME280;41334;47.872;16.384;2023-08-07T02:11:43;98249.28;;;13.31;56.57
55470;BME280;41334;47.872;16.384;2023-08-07T02:16:46;98256.03;;;13.30;55.82
55470;BME280;41334;47.872;16.384;2023-08-07T02:21:49;98265.97;;;13.31;54.94
55470;BME280;41334;47.872;16.384;2023-08-07T02:26:50;98266.34;;;13.29;55.27
55470;BME280;41334;47.872;16.384;2023-08-07T02:31:53;98254.22;;;13.22;56.09
55470;BME280;41334;47.872;16.384;2023-08-07T02:36:56;98251.28;;;13.14;56.52
55470;BME280;41334;47.872;16.384;2023-08-07T02:41:58;98255.50;;;13.08;56.67
55470;BME280;41334;47.872;16.384;2023-08-07T02:47:01;98253.16;;;13.10;56.62
55470;BME280;41334;47.872;16.384;2023-08-07T02:52:03;98258.72;;;13.10;56.65
55470;BME280;41334;47.872;16.384;2023-08-07T02:57:05;98256.38;;;13.12;55.86
55470;BME280;41334;47.872;16.384;2023-08-07T03:02:07;98261.59;;;13.14;55.14
55470;BME280;41334;47.872;16.384;2023-08-07T03:07:09;98255.66;;;13.15;54.90
55470;BME280;41334;47.872;16.384;2023-08-07T03:12:11;98254.06;;;13.14;55.18
55470;BME280;41334;47.872;16.384;2023-08-07T03:17:12;98257.38;;;13.20;54.50
55470;BME280;41334;47.872;16.384;2023-08-07T03:22:14;98264.09;;;13.19;54.63
55470;BME280;41334;47.872;16.384;2023-08-07T03:27:17;98256.94;;;13.18;54.38
55470;BME280;41334;47.872;16.384;2023-08-07T03:32:20;98265.97;;;13.15;54.50
55470;BME280;41334;47.872;16.384;2023-08-07T03:37:22;98274.97;;;13.08;55.00
55470;BME280;41334;47.872;16.384;2023-08-07T03:42:24;98281.22;;;13.05;55.38
55470;BME280;41334;47.872;16.384;2023-08-07T03:47:26;98275.22;;;13.03;54.69
55470;BME280;41334;47.872;16.384;2023-08-07T03:52:29;98277.22;;;13.18;53.50
55470;BME280;41334;47.872;16.384;2023-08-07T03:57:31;98281.66;;;13.23;53.43
55470;BME280;41334;47.872;16.384;2023-08-07T04:02:33;98293.72;;;13.27;53.66
55470;BME280;41334;47.872;16.384;2023-08-07T04:07:36;98284.81;;;13.37;52.70
55470;BME280;41334;47.872;16.384;2023-08-07T04:12:38;98299.38;;;13.46;52.83
55470;BME280;41334;47.872;16.384;2023-08-07T04:17:40;98284.53;;;13.58;52.41
55470;BME280;41334;47.872;16.384;2023-08-07T04:22:43;98287.09;;;13.63;53.99
55470;BME280;41334;47.872;16.384;2023-08-07T04:27:46;98289.22;;;13.70;53.94
55470;BME280;41334;47.872;16.384;2023-08-07T04:32:48;98298.03;;;14.07;53.91
55470;BME280;41334;47.872;16.384;2023-08-07T04:37:50;98296.25;;;14.15;52.12
55470;BME280;41334;47.872;16.384;2023-08-07T04:42:52;98306.06;;;14.09;50.29
55470;BME280;41334;47.872;16.384;2023-08-07T04:47:54;98300.88;;;14.27;49.67
55470;BME280;41334;47.872;16.384;2023-08-07T04:52:56;98302.03;;;14.45;49.13
55470;BME280;41334;47.872;16.384;2023-08-07T04:57:58;98301.31;;;14.67;48.92
55470;BME280;41334;47.872;16.384;2023-08-07T05:03:00;98313.28;;;14.68;47.89
55470;BME280;41334;47.872;16.384;2023-08-07T05:08:03;98304.13;;;14.87;47.71
55470;BME280;41334;47.872;16.384;2023-08-07T05:13:05;98316.13;;;15.33;46.09
55470;BME280;41334;47.872;16.384;2023-08-07T05:18:07;98324.31;;;15.68;45.14
55470;BME280;41334;47.872;16.384;2023-08-07T05:23:09;98326.50;;;15.78;46.07
55470;BME280;41334;47.872;16.384;2023-08-07T05:28:12;98328.66;;;15.66;46.33
55470;BME280;41334;47.872;16.384;2023-08-07T05:33:14;98338.09;;;15.58;46.23
55470;BME280;41334;47.872;16.384;2023-08-07T05:38:17;98342.38;;;15.51;46.13
55470;BME280;41334;47.872;16.384;2023-08-07T05:43:19;98335.72;;;15.14;45.70
55470;BME280;41334;47.872;16.384;2023-08-07T05:48:20;98346.75;;;15.07;45.93
55470;BME280;41334;47.872;16.384;2023-08-07T05:53:22;98366.19;;;15.22;45.31
55470;BME280;41334;47.872;16.384;2023-08-07T05:58:24;98371.97;;;15.33;46.18
55470;BME280;41334;47.872;16.384;2023-08-07T06:03:26;98379.44;;;15.06;45.38
55470;BME280;41334;47.872;16.384;2023-08-07T06:08:28;98386.41;;;14.96;45.53
55470;BME280;41334;47.872;16.384;2023-08-07T06:13:31;98387.41;;;14.88;45.73
55470;BME280;41334;47.872;16.384;2023-08-07T06:18:37;98396.66;;;14.92;46.17
55470;BME280;41334;47.872;16.384;2023-08-07T06:23:39;98388.38;;;14.96;46.78
55470;BME280;41334;47.872;16.384;2023-08-07T06:28:41;98396.88;;;15.03;46.11
55470;BME280;41334;47.872;16.384;2023-08-07T06:33:43;98393.88;;;15.12;45.75
55470;BME280;41334;47.872;16.384;2023-08-07T06:38:45;98395.41;;;15.28;45.53
55470;BME280;41334;47.872;16.384;2023-08-07T06:43:47;98404.34;;;15.38;45.59
55470;BME280;41334;47.872;16.384;2023-08-07T06:48:49;98399.78;;;15.49;45.35
55470;BME280;41334;47.872;16.384;2023-08-07T06:53:51;98401.44;;;15.11;46.25
55470;BME280;41334;47.872;16.384;2023-08-07T06:58:53;98413.03;;;15.13;45.75
55470;BME280;41334;47.872;16.384;2023-08-07T07:03:55;98415.84;;;14.94;46.56
55470;BME280;41334;47.872;16.384;2023-08-07T07:08:57;98428.97;;;15.13;46.15
55470;BME280;41334;47.872;16.384;2023-08-07T07:13:59;98430.38;;;15.03;45.94
55470;BME280;41334;47.872;16.384;2023-08-07T07:19:01;98434.47;;;15.09;45.95
55470;BME280;41334;47.872;16.384;2023-08-07T07:24:03;98449.09;;;14.83;45.46
55470;BME280;41334;47.872;16.384;2023-08-07T07:29:05;98453.56;;;15.07;45.73
55470;BME280;41334;47.872;16.384;2023-08-07T07:34:11;98456.72;;;15.25;45.57
55470;BME280;41334;47.872;16.384;2023-08-07T07:39:13;98453.03;;;15.40;44.91
55470;BME280;41334;47.872;16.384;2023-08-07T07:44:15;98465.94;;;15.68;44.45
55470;BME280;41334;47.872;16.384;2023-08-07T07:49:17;98474.38;;;15.48;43.94
55470;BME280;41334;47.872;16.384;2023-08-07T07:54:18;98482.44;;;15.53;44.13
55470;BME280;41334;47.872;16.384;2023-08-07T07:59:20;98476.75;;;15.69;43.80
55470;BME280;41334;47.872;16.384;2023-08-07T08:04:22;98482.97;;;16.01;44.31
55470;BME280;41334;47.872;16.384;2023-08-07T08:09:25;98494.00;;;15.94;44.36
55470;BME280;41334;47.872;16.384;2023-08-07T08:14:27;98496.03;;;15.55;44.17
55470;BME280;41334;47.872;16.384;2023-08-07T08:19:29;98506.69;;;15.69;44.87
55470;BME280;41334;47.872;16.384;2023-08-07T08:24:46;98521.22;;;15.97;44.18
55470;BME280;41334;47.872;16.384;2023-08-07T08:29:49;98525.19;;;16.19;43.57
55470;BME280;41334;47.872;16.384;2023-08-07T08:34:51;98541.16;;;16.19;43.72
55470;BME280;41334;47.872;16.384;2023-08-07T08:39:53;98539.78;;;16.55;42.43
55470;BME280;41334;47.872;16.384;2023-08-07T08:44:58;98544.66;;;17.11;41.42
55470;BME280;41334;47.872;16.384;2023-08-07T08:50:03;98540.78;;;17.19;41.06
55470;BME280;41334;47.872;16.384;2023-08-07T08:55:07;98551.81;;;17.35;42.15
55470;BME280;41334;47.872;16.384;2023-08-07T09:00:10;98554.50;;;17.58;40.33
55470;BME280;41334;47.872;16.384;2023-08-07T09:05:33;98559.88;;;18.04;39.17
55470;BME280;41334;47.872;16.384;2023-08-07T09:10:37;98556.16;;;17.93;40.26
55470;BME280;41334;47.872;16.384;2023-08-07T09:15:39;98571.41;;;17.61;40.76
55470;BME280;41334;47.872;16.384;2023-08-07T09:20:41;98588.03;;;17.81;40.87
55470;BME280;41334;47.872;16.384;2023-08-07T09:25:44;98574.56;;;17.60;41.07
55470;BME280;41334;47.872;16.384;2023-08-07T09:30:46;98589.75;;;17.89;42.33
55470;BME280;41334;47.872;16.384;2023-08-07T09:35:49;98590.13;;;16.78;41.82
55470;BME280;41334;47.872;16.384;2023-08-07T09:40:51;98601.31;;;16.55;42.90
55470;BME280;41334;47.872;16.384;2023-08-07T09:46:02;98610.25;;;15.99;43.64
55470;BME280;41334;47.872;16.384;2023-08-07T09:51:04;98623.75;;;15.58;45.95
55470;BME280;41334;47.872;16.384;2023-08-07T09:56:06;98634.22;;;15.80;45.90
55470;BME280;41334;47.872;16.384;2023-08-07T10:01:09;98626.91;;;15.57;45.51
55470;BME280;41334;47.872;16.384;2023-08-07T10:06:11;98647.13;;;15.34;47.94
55470;BME280;41334;47.872;16.384;2023-08-07T10:11:13;98651.69;;;14.91;48.47
55470;BME280;41334;47.872;16.384;2023-08-07T10:16:18;98663.03;;;14.83;48.79
55470;BME280;41334;47.872;16.384;2023-08-07T10:21:21;98659.53;;;14.86;48.92
55470;BME280;41334;47.872;16.384;2023-08-07T10:26:25;98652.34;;;14.85;48.39
55470;BME280;41334;47.872;16.384;2023-08-07T10:31:27;98652.50;;;14.76;48.93
55470;BME280;41334;47.872;16.384;2023-08-07T10:36:33;98668.44;;;14.91;48.88
55470;BME280;41334;47.872;16.384;2023-08-07T10:41:45;98666.41;;;14.60;49.49
55470;BME280;41334;47.872;16.384;2023-08-07T10:46:57;98663.88;;;14.55;49.78
55470;BME280;41334;47.872;16.384;2023-08-07T10:52:04;98661.06;;;14.39;49.80
55470;BME280;41334;47.872;16.384;2023-08-07T10:57:12;98659.03;;;14.36;50.28
55470;BME280;41334;47.872;16.384;2023-08-07T11:02:25;98665.06;;;14.70;50.23
55470;BME280;41334;47.872;16.384;2023-08-07T11:07:30;98666.16;;;14.65;49.68
55470;BME280;41334;47.872;16.384;2023-08-07T11:12:32;98667.41;;;14.52;50.38
55470;BME280;41334;47.872;16.384;2023-08-07T11:17:34;98674.72;;;15.04;49.81
55470;BME280;41334;47.872;16.384;2023-08-07T11:22:37;98670.16;;;15.12;50.32
55470;BME280;41334;47.872;16.384;2023-08-07T11:27:39;98674.91;;;15.27;54.49
55470;BME280;41334;47.872;16.384;2023-08-07T11:32:41;98683.94;;;15.05;57.32
55470;BME280;41334;47.872;16.384;2023-08-07T11:37:47;98676.91;;;14.51;57.37
55470;BME280;41334;47.872;16.384;2023-08-07T11:42:49;98682.19;;;14.40;58.52
55470;BME280;41334;47.872;16.384;2023-08-07T11:47:51;98697.72;;;14.54;58.03
55470;BME280;41334;47.872;16.384;2023-08-07T11:52:55;98691.69;;;13.95;58.25
55470;BME280;41334;47.872;16.384;2023-08-07T11:58:06;98703.16;;;14.06;60.90
55470;BME280;41334;47.872;16.384;2023-08-07T12:03:23;98702.50;;;14.25;58.63
55470;BME280;41334;47.872;16.384;2023-08-07T12:08:37;98711.88;;;14.33;60.77
55470;BME280;41334;47.872;16.384;2023-08-07T12:13:47;98715.53;;;14.21;59.29
55470;BME280;41334;47.872;16.384;2023-08-07T12:18:51;98714.59;;;14.45;61.48
55470;BME280;41334;47.872;16.384;2023-08-07T12:23:56;98713.84;;;14.04;59.81
55470;BME280;41334;47.872;16.384;2023-08-07T12:28:59;98722.44;;;13.99;60.04
55470;BME280;41334;47.872;16.384;2023-08-07T12:34:01;98737.94;;;14.24;61.40
55470;BME280;41334;47.872;16.384;2023-08-07T12:39:06;98732.97;;;14.06;61.52
55470;BME280;41334;47.872;16.384;2023-08-07T12:44:08;98727.84;;;14.08;62.07
55470;BME280;41334;47.872;16.384;2023-08-07T12:49:10;98741.75;;;13.80;60.21
55470;BME280;41334;47.872;16.384;2023-08-07T12:54:12;98734.78;;;13.86;61.17
55470;BME280;41334;47.872;16.384;2023-08-07T12:59:14;98746.34;;;14.00;59.73
55470;BME280;41334;47.872;16.384;2023-08-07T13:04:16;98736.69;;;14.10;60.30
55470;BME280;41334;47.872;16.384;2023-08-07T13:09:18;98733.06;;;14.21;59.69
55470;BME280;41334;47.872;16.384;2023-08-07T13:14:22;98731.13;;;14.10;58.57
55470;BME280;41334;47.872;16.384;2023-08-07T13:19:23;98729.03;;;14.35;59.42
55470;BME280;41334;47.872;16.384;2023-08-07T13:24:25;98731.50;;;14.24;59.31
55470;BME280;41334;47.872;16.384;2023-08-07T13:29:27;98726.06;;;14.28;57.42
55470;BME280;41334;47.872;16.384;2023-08-07T13:34:32;98734.78;;;14.70;56.53
55470;BME280;41334;47.872;16.384;2023-08-07T13:39:34;98738.34;;;14.55;55.21
55470;BME280;41334;47.872;16.384;2023-08-07T13:44:39;98742.69;;;14.52;56.64
55470;BME280;41334;47.872;16.384;2023-08-07T13:49:41;98751.41;;;14.66;55.90
55470;BME280;41334;47.872;16.384;2023-08-07T13:54:43;98759.34;;;14.64;55.40
55470;BME280;41334;47.872;16.384;2023-08-07T13:59:45;98763.09;;;14.84;55.86
55470;BME280;41334;47.872;16.384;2023-08-07T14:04:49;98765.53;;;14.86;55.90
55470;BME280;41334;47.872;16.384;2023-08-07T14:09:51;98762.13;;;14.92;53.43
55470;BME280;41334;47.872;16.384;2023-08-07T14:14:53;98779.31;;;14.94;54.58
55470;BME280;41334;47.872;16.384;2023-08-07T14:19:55;98784.28;;;15.17;53.33
55470;BME280;41334;47.872;16.384;2023-08-07T14:24:57;98780.22;;;15.14;52.57
55470;BME280;41334;47.872;16.384;2023-08-07T14:29:59;98787.34;;;15.43;52.52
55470;BME280;41334;47.872;16.384;2023-08-07T14:35:01;98786.97;;;15.61;50.87
55470;BME280;41334;47.872;16.384;2023-08-07T14:40:04;98791.50;;;15.49;51.51
55470;BME280;41334;47.872;16.384;2023-08-07T14:45:06;98788.44;;;15.23;51.21
55470;BME280;41334;47.872;16.384;2023-08-07T14:50:09;98782.56;;;15.12;52.10
55470;BME280;41334;47.872;16.384;2023-08-07T14:55:11;98777.91;;;15.32;51.52
55470;BME280;41334;47.872;16.384;2023-08-07T15:00:13;98780.88;;;15.39;51.63
55470;BME280;41334;47.872;16.384;2023-08-07T15:05:16;98780.22;;;15.46;51.58
55470;BME280;41334;47.872;16.384;2023-08-07T15:10:18;98777.00;;;15.75;51.26
55470;BME280;41334;47.872;16.384;2023-08-07T15:15:23;98780.84;;;15.71;50.78
55470;BME280;41334;47.872;16.384;2023-08-07T15:20:25;98781.03;;;15.62;50.92
55470;BME280;41334;47.872;16.384;2023-08-07T15:25:27;98780.06;;;15.39;51.47
55470;BME280;41334;47.872;16.384;2023-08-07T15:30:29;98792.38;;;15.06;52.08
55470;BME280;41334;47.872;16.384;2023-08-07T15:35:32;98806.06;;;14.95;52.98
55470;BME280;41334;47.872;16.384;2023-08-07T15:40:34;98794.16;;;14.98;52.27
55470;BME280;41334;47.872;16.384;2023-08-07T15:45:36;98796.88;;;14.95;52.42
55470;BME280;41334;47.872;16.384;2023-08-07T15:50:38;98797.06;;;15.02;52.62
55470;BME280;41334;47.872;16.384;2023-08-07T15:55:40;98803.44;;;15.02;52.56
55470;BME280;41334;47.872;16.384;2023-08-07T16:00:42;98801.56;;;15.07;52.49
55470;BME280;41334;47.872;16.384;2023-08-07T16:05:44;98805.88;;;15.04;52.72
55470;BME280;41334;47.872;16.384;2023-08-07T16:10:47;98817.22;;;14.95;53.26
55470;BME280;41334;47.872;16.384;2023-08-07T16:15:48;98810.78;;;14.67;54.03
55470;BME280;41334;47.872;16.384;2023-08-07T16:20:50;98830.38;;;14.55;54.68
55470;BME280;41334;47.872;16.384;2023-08-07T16:25:53;98819.72;;;14.44;55.37
55470;BME280;41334;47.872;16.384;2023-08-07T16:30:57;98831.91;;;14.40;55.23
55470;BME280;41334;47.872;16.384;2023-08-07T16:35:59;98831.34;;;14.34;55.63
55470;BME280;41334;47.872;16.384;2023-08-07T16:41:02;98828.13;;;14.32;56.18
55470;BME280;41334;47.872;16.384;2023-08-07T16:46:04;98834.25;;;14.38;56.06
55470;BME280;41334;47.872;16.384;2023-08-07T16:51:08;98838.47;;;14.32;56.24
55470;BME280;41334;47.872;16.384;2023-08-07T16:56:16;98834.38;;;14.29;56.56
55470;BME280;41334;47.872;16.384;2023-08-07T17:01:18;98838.59;;;14.23;57.20
55470;BME280;41334;47.872;16.384;2023-08-07T17:06:21;98838.38;;;14.16;57.54
55470;BME280;41334;47.872;16.384;2023-08-07T17:11:23;98846.25;;;14.14;57.54
55470;BME280;41334;47.872;16.384;2023-08-07T17:16:26;98856.00;;;14.32;56.81
55470;BME280;41334;47.872;16.384;2023-08-07T17:21:29;98851.44;;;14.40;56.59
55470;BME280;41334;47.872;16.384;2023-08-07T17:26:30;98865.25;;;14.48;56.91
55470;BME280;41334;47.872;16.384;2023-08-07T17:31:32;98870.09;;;15.36;55.27
55470;BME280;41334;47.872;16.384;2023-08-07T17:36:34;98855.22;;;15.75;53.77
55470;BME280;41334;47.872;16.384;2023-08-07T17:41:36;98867.44;;;16.02;53.26
55470;BME280;41334;47.872;16.384;2023-08-07T17:46:38;98881.94;;;15.61;54.38
55470;BME280;41334;47.872;16.384;2023-08-07T17:51:42;98891.56;;;14.75;56.77
55470;BME280;41334;47.872;16.384;2023-08-07T17:56:44;98880.25;;;14.32;57.51
55470;BME280;41334;47.872;16.384;2023-08-07T18:01:48;98877.84;;;14.06;58.94
55470;BME280;41334;47.872;16.384;2023-08-07T18:06:56;98885.53;;;13.84;59.55
55470;BME280;41334;47.872;16.384;2023-08-07T18:11:58;98887.38;;;13.68;60.18
55470;BME280;41334;47.872;16.384;2023-08-07T18:17:00;98885.09;;;13.49;61.12
55470;BME280;41334;47.872;16.384;2023-08-07T18:22:03;98880.75;;;13.27;61.62
55470;BME280;41334;47.872;16.384;2023-08-07T18:27:07;98876.94;;;13.19;62.20
55470;BME280;41334;47.872;16.384;2023-08-07T18:32:11;98895.81;;;13.14;62.68
55470;BME280;41334;47.872;16.384;2023-08-07T18:37:13;98888.13;;;13.11;62.96
55470;BME280;41334;47.872;16.384;2023-08-07T18:42:15;98905.84;;;13.06;63.30
55470;BME280;41334;47.872;16.384;2023-08-07T18:47:17;98907.38;;;13.04;63.62
55470;BME280;41334;47.872;16.384;2023-08-07T18:52:18;98920.66;;;12.98;63.57
55470;BME280;41334;47.872;16.384;2023-08-07T18:57:20;98927.38;;;12.97;63.97
55470;BME280;41334;47.872;16.384;2023-08-07T19:02:22;98937.63;;;12.84;64.53
55470;BME280;41334;47.872;16.384;2023-08-07T19:07:25;98953.84;;;12.82;65.05
55470;BME280;41334;47.872;16.384;2023-08-07T19:12:27;98962.25;;;12.74;65.00
55470;BME280;41334;47.872;16.384;2023-08-07T19:17:30;98975.72;;;12.63;65.40
55470;BME280;41334;47.872;16.384;2023-08-07T19:22:35;98987.22;;;12.53;66.15
55470;BME280;41334;47.872;16.384;2023-08-07T19:27:36;99002.94;;;12.49;65.99
55470;BME280;41334;47.872;16.384;2023-08-07T19:32:38;98998.69;;;12.42;66.50
55470;BME280;41334;47.872;16.384;2023-08-07T19:37:40;99011.34;;;12.31;65.28
55470;BME280;41334;47.872;16.384;2023-08-07T19:42:42;99027.28;;;12.22;64.99
55470;BME280;41334;47.872;16.384;2023-08-07T19:47:47;99026.59;;;12.25;64.45
55470;BME280;41334;47.872;16.384;2023-08-07T19:52:49;99037.97;;;12.32;63.79
55470;BME280;41334;47.872;16.384;2023-08-07T19:57:51;99031.97;;;12.30;63.49
55470;BME280;41334;47.872;16.384;2023-08-07T20:02:53;99033.47;;;12.19;63.71
55470;BME280;41334;47.872;16.384;2023-08-07T20:07:55;99041.47;;;12.21;63.43
55470;BME280;41334;47.872;16.384;2023-08-07T20:12:57;99043.78;;;12.19;64.04
55470;BME280;41334;47.872;16.384;2023-08-07T20:17:59;99054.78;;;12.06;63.95
55470;BME280;41334;47.872;16.384;2023-08-07T20:23:01;99056.56;;;12.02;64.51
55470;BME280;41334;47.872;16.384;2023-08-07T20:28:03;99066.41;;;11.91;64.92
55470;BME280;41334;47.872;16.384;2023-08-07T20:33:05;99061.34;;;11.84;64.63
55470;BME280;41334;47.872;16.384;2023-08-07T20:38:07;99062.03;;;11.81;64.65
55470;BME280;41334;47.872;16.384;2023-08-07T20:43:09;99054.31;;;11.96;63.85
55470;BME280;41334;47.872;16.384;2023-08-07T20:48:13;99068.16;;;12.04;62.73
55470;BME280;41334;47.872;16.384;2023-08-07T20:53:15;99084.13;;;12.16;62.24
55470;BME280;41334;47.872;16.384;2023-08-07T20:58:17;99094.13;;;12.08;62.81
55470;BME280;41334;47.872;16.384;2023-08-07T21:03:19;99097.72;;;12.00;63.66
55470;BME280;41334;47.872;16.384;2023-08-07T21:08:21;99102.34;;;11.96;63.51
55470;BME280;41334;47.872;16.384;2023-08-07T21:13:24;99106.41;;;11.90;63.76
55470;BME280;41334;47.872;16.384;2023-08-07T21:18:26;99104.00;;;11.80;64.43
55470;BME280;41334;47.872;16.384;2023-08-07T21:23:28;99100.06;;;11.81;64.57
55470;BME280;41334;47.872;16.384;2023-08-07T21:28:30;99102.84;;;11.81;64.74
55470;BME280;41334;47.872;16.384;2023-08-07T21:33:32;99101.88;;;11.85;64.25
55470;BME280;41334;47.872;16.384;2023-08-07T21:38:34;99111.63;;;12.00;63.25
55470;BME280;41334;47.872;16.384;2023-08-07T21:43:36;99114.56;;;12.04;63.05
55470;BME280;41334;47.872;16.384;2023-08-07T21:48:38;99118.13;;;12.13;62.41
55470;BME280;41334;47.872;16.384;2023-08-07T21:53:40;99114.72;;;12.07;62.58
55470;BME280;41334;47.872;16.384;2023-08-07T21:58:42;99120.75;;;12.09;61.84
55470;BME280;41334;47.872;16.384;2023-08-07T22:03:44;99110.97;;;12.12;61.55
55470;BME280;41334;47.872;16.384;2023-08-07T22:08:46;99117.81;;;12.14;60.75
55470;BME280;41334;47.872;16.384;2023-08-07T22:13:48;99115.81;;;12.24;60.18
55470;BME280;41334;47.872;16.384;2023-08-07T22:18:50;99127.59;;;12.21;60.40
55470;BME280;41334;47.872;16.384;2023-08-07T22:23:52;99129.72;;;12.15;60.51
55470;BME280;41334;47.872;16.384;2023-08-07T22:28:54;99133.81;;;12.00;60.90
55470;BME280;41334;47.872;16.384;2023-08-07T22:33:56;99124.69;;;12.00;61.04
55470;BME280;41334;47.872;16.384;2023-08-07T22:38:58;99111.81;;;11.86;61.29
55470;BME280;41334;47.872;16.384;2023-08-07T22:44:00;99108.69;;;11.88;60.83
55470;BME280;41334;47.872;16.384;2023-08-07T22:49:02;99112.44;;;12.01;60.12
55470;BME280;41334;47.872;16.384;2023-08-07T22:54:04;99115.19;;;12.01;60.06
55470;BME280;41334;47.872;16.384;2023-08-07T22:59:06;99112.94;;;12.03;59.97
55470;BME280;41334;47.872;16.384;2023-08-07T23:04:08;99107.53;;;12.06;59.99
55470;BME280;41334;47.872;16.384;2023-08-07T23:09:10;99101.53;;;11.96;60.63
55470;BME280;41334;47.872;16.384;2023-08-07T23:14:12;99099.22;;;12.06;59.85
55470;BME280;41334;47.872;16.384;2023-08-07T23:19:14;99087.81;;;11.91;60.54
55470;BME280;41334;47.872;16.384;2023-08-07T23:24:16;99092.22;;;11.92;60.35
55470;BME280;41334;47.872;16.384;2023-08-07T23:29:18;99100.84;;;11.90;60.60
55470;BME280;41334;47.872;16.384;2023-08-07T23:34:20;99097.59;;;11.79;60.81
55470;BME280;41334;47.872;16.384;2023-08-07T23:39:22;99106.44;;;11.73;61.20
55470;BME280;41334;47.872;16.384;2023-08-07T23:44:23;99098.44;;;11.62;61.49
55470;BME280;41334;47.872;16.384;2023-08-07T23:49:25;99100.09;;;11.55;61.48
55470;BME280;41334;47.872;16.384;2023-08-07T23:54:27;99102.72;;;11.43;62.02
55470;BME280;41334;47.872;16.384;2023-08-07T23:59:29;99108.44;;;11.38;62.00
